sensor_id;sensor_type;location;lat;lon;timestamp;P1;durP1;ratioP1;P2;durP2;ratioP2
50651;SDS011;61429;52.086;5.240;2022-10-18T15:42:04;5.4;;;2.21;;
50651;SDS011;61429;52.086;5.240;2022-10-18T15:45:33;5.8;;;1.9;;
50651;SDS011;61429;52.086;5.240;2022-10-18T15:47:14;4.41;;;2.0;;
50651;SDS011;61429;52.086;5.240;2022-10-18T15:48:52;4.7;;;1.9;;
50651;SDS011;61429;52.086;5.240;2022-10-18T15:51:18;6.7;;;2.31;;
50651;SDS011;61429;52.086;5.240;2022-10-18T15:53:54;7.1;;;2.31;;
50651;SDS011;61429;52.086;5.240;2022-10-18T15:55:46;7.6;;;2.21;;
50651;SDS011;61429;52.086;5.240;2022-10-18T15:57:24;8.71;;;2.4;;
50651;SDS011;61429;52.086;5.240;2022-10-18T15:59:03;5.3;;;2.1;;
50651;SDS011;61429;52.086;5.240;2022-10-18T16:00:56;7.8;;;2.5;;
50651;SDS011;61429;52.086;5.240;2022-10-18T16:04:14;5.7;;;2.0;;
50651;SDS011;61429;52.086;5.240;2022-10-18T16:06:02;6.1;;;2.0;;
50651;SDS011;61429;52.086;5.240;2022-10-18T16:07:42;6.2;;;2.31;;
50651;SDS011;61429;52.086;5.240;2022-10-18T16:09:18;6.6;;;2.21;;
50651;SDS011;61429;52.086;5.240;2022-10-18T16:12:34;6.6;;;2.21;;
50651;SDS011;61429;52.086;5.240;2022-10-18T16:14:10;4.8;;;2.0;;
50651;SDS011;61429;52.086;5.240;2022-10-18T16:15:46;8.0;;;2.4;;
50651;SDS011;61429;52.086;5.240;2022-10-18T16:17:22;6.3;;;2.0;;
50651;SDS011;61429;52.086;5.240;2022-10-18T16:20:36;6.0;;;2.5;;
50651;SDS011;61429;52.086;5.240;2022-10-18T16:22:12;6.4;;;2.31;;
50651;SDS011;61429;52.086;5.240;2022-10-18T16:23:49;5.11;;;1.8;;
50651;SDS011;61429;52.086;5.240;2022-10-18T16:27:02;7.1;;;2.1;;
50651;SDS011;61429;52.086;5.240;2022-10-18T16:28:39;6.1;;;2.1;;
50651;SDS011;61429;52.086;5.240;2022-10-18T16:30:17;8.1;;;2.5;;
50651;SDS011;61429;52.086;5.240;2022-10-18T16:31:57;8.0;;;2.6;;
50651;SDS011;61429;52.086;5.240;2022-10-18T16:35:12;6.9;;;2.8;;
50651;SDS011;61429;52.086;5.240;2022-10-18T16:36:48;9.31;;;3.4;;
50651;SDS011;61429;52.086;5.240;2022-10-18T16:38:25;7.4;;;2.8;;
50651;SDS011;61429;52.086;5.240;2022-10-18T16:41:59;6.5;;;2.7;;
50651;SDS011;61429;52.086;5.240;2022-10-18T16:43:36;7.8;;;3.6;;
50651;SDS011;61429;52.086;5.240;2022-10-18T16:45:13;5.7;;;3.1;;
50651;SDS011;61429;52.086;5.240;2022-10-18T16:46:49;6.0;;;3.0;;
50651;SDS011;61429;52.086;5.240;2022-10-18T16:50:09;5.3;;;2.6;;
50651;SDS011;61429;52.086;5.240;2022-10-18T16:51:48;6.4;;;3.3;;
50651;SDS011;61429;52.086;5.240;2022-10-18T16:53:25;6.6;;;3.8;;
50651;SDS011;61429;52.086;5.240;2022-10-18T16:55:02;7.2;;;3.9;;
50651;SDS011;61429;52.086;5.240;2022-10-18T16:58:16;9.71;;;4.8;;
50651;SDS011;61429;52.086;5.240;2022-10-18T16:59:52;10.1;;;4.61;;
50651;SDS011;61429;52.086;5.240;2022-10-18T17:01:29;8.9;;;4.1;;
50651;SDS011;61429;52.086;5.240;2022-10-18T17:04:41;8.0;;;4.0;;
50651;SDS011;61429;52.086;5.240;2022-10-18T17:06:19;10.8;;;4.3;;
50651;SDS011;61429;52.086;5.240;2022-10-18T17:07:57;8.6;;;4.0;;
50651;SDS011;61429;52.086;5.240;2022-10-18T17:11:10;9.21;;;4.1;;
50651;SDS011;61429;52.086;5.240;2022-10-18T17:12:47;9.1;;;3.9;;
50651;SDS011;61429;52.086;5.240;2022-10-18T17:14:24;7.8;;;3.7;;
50651;SDS011;61429;52.086;5.240;2022-10-18T17:16:02;8.9;;;4.3;;
50651;SDS011;61429;52.086;5.240;2022-10-18T17:19:16;12.1;;;4.7;;
50651;SDS011;61429;52.086;5.240;2022-10-18T17:20:52;9.4;;;4.8;;
50651;SDS011;61429;52.086;5.240;2022-10-18T17:22:29;8.5;;;4.41;;
50651;SDS011;61429;52.086;5.240;2022-10-18T17:25:43;7.1;;;4.2;;
50651;SDS011;61429;52.086;5.240;2022-10-18T17:27:20;10.6;;;4.41;;
50651;SDS011;61429;52.086;5.240;2022-10-18T17:28:56;11.5;;;5.5;;
50651;SDS011;61429;52.086;5.240;2022-10-18T17:30:35;12.7;;;5.0;;
50651;SDS011;61429;52.086;5.240;2022-10-18T17:33:53;9.0;;;4.8;;
50651;SDS011;61429;52.086;5.240;2022-10-18T17:35:29;11.3;;;5.2;;
50651;SDS011;61429;52.086;5.240;2022-10-18T17:37:06;11.3;;;6.3;;
50651;SDS011;61429;52.086;5.240;2022-10-18T17:40:19;12.7;;;7.4;;
50651;SDS011;61429;52.086;5.240;2022-10-18T17:41:55;13.4;;;7.7;;
50651;SDS011;61429;52.086;5.240;2022-10-18T17:43:32;11.2;;;6.8;;
50651;SDS011;61429;52.086;5.240;2022-10-18T17:45:08;14.1;;;7.2;;
50651;SDS011;61429;52.086;5.240;2022-10-18T17:48:23;13.1;;;7.0;;
50651;SDS011;61429;52.086;5.240;2022-10-18T17:50:00;9.9;;;6.2;;
50651;SDS011;61429;52.086;5.240;2022-10-18T17:51:36;12.9;;;6.6;;
50651;SDS011;61429;52.086;5.240;2022-10-18T17:54:50;10.5;;;5.8;;
50651;SDS011;61429;52.086;5.240;2022-10-18T17:56:31;11.4;;;6.1;;
50651;SDS011;61429;52.086;5.240;2022-10-18T17:58:08;10.7;;;6.7;;
50651;SDS011;61429;52.086;5.240;2022-10-18T18:01:22;12.9;;;6.9;;
50651;SDS011;61429;52.086;5.240;2022-10-18T18:02:59;10.0;;;6.9;;
50651;SDS011;61429;52.086;5.240;2022-10-18T18:04:36;12.0;;;6.0;;
50651;SDS011;61429;52.086;5.240;2022-10-18T18:06:14;11.5;;;5.2;;
50651;SDS011;61429;52.086;5.240;2022-10-18T18:09:29;11.0;;;5.2;;
50651;SDS011;61429;52.086;5.240;2022-10-18T18:11:06;9.4;;;6.0;;
50651;SDS011;61429;52.086;5.240;2022-10-18T18:12:44;10.7;;;5.0;;
50651;SDS011;61429;52.086;5.240;2022-10-18T18:16:07;12.8;;;7.1;;
50651;SDS011;61429;52.086;5.240;2022-10-18T18:17:45;12.8;;;6.3;;
50651;SDS011;61429;52.086;5.240;2022-10-18T18:19:22;11.8;;;6.1;;
50651;SDS011;61429;52.086;5.240;2022-10-18T18:20:59;13.3;;;6.8;;
50651;SDS011;61429;52.086;5.240;2022-10-18T18:24:13;11.9;;;6.5;;
50651;SDS011;61429;52.086;5.240;2022-10-18T18:25:53;13.7;;;7.1;;
50651;SDS011;61429;52.086;5.240;2022-10-18T18:27:30;11.6;;;6.8;;
50651;SDS011;61429;52.086;5.240;2022-10-18T18:29:07;11.9;;;6.1;;
50651;SDS011;61429;52.086;5.240;2022-10-18T18:32:21;12.0;;;6.1;;
50651;SDS011;61429;52.086;5.240;2022-10-18T18:33:58;10.5;;;5.0;;
50651;SDS011;61429;52.086;5.240;2022-10-18T18:35:34;8.71;;;4.8;;
50651;SDS011;61429;52.086;5.240;2022-10-18T18:38:47;12.9;;;5.5;;
50651;SDS011;61429;52.086;5.240;2022-10-18T18:40:26;10.9;;;5.0;;
50651;SDS011;61429;52.086;5.240;2022-10-18T18:42:02;10.7;;;5.9;;
50651;SDS011;61429;52.086;5.240;2022-10-18T18:45:19;11.1;;;5.6;;
50651;SDS011;61429;52.086;5.240;2022-10-18T18:46:57;11.8;;;5.8;;
50651;SDS011;61429;52.086;5.240;2022-10-18T18:48:34;14.6;;;6.3;;
50651;SDS011;61429;52.086;5.240;2022-10-18T18:50:11;10.7;;;6.1;;
50651;SDS011;61429;52.086;5.240;2022-10-18T18:53:24;10.5;;;5.7;;
50651;SDS011;61429;52.086;5.240;2022-10-18T18:55:00;10.8;;;5.7;;
50651;SDS011;61429;52.086;5.240;2022-10-18T18:56:36;13.3;;;6.2;;
50651;SDS011;61429;52.086;5.240;2022-10-18T18:59:49;11.9;;;6.7;;
50651;SDS011;61429;52.086;5.240;2022-10-18T19:01:26;15.3;;;6.8;;
50651;SDS011;61429;52.086;5.240;2022-10-18T19:03:04;12.5;;;6.7;;
50651;SDS011;61429;52.086;5.240;2022-10-18T19:04:40;11.0;;;6.0;;
50651;SDS011;61429;52.086;5.240;2022-10-18T19:07:57;11.3;;;5.7;;
50651;SDS011;61429;52.086;5.240;2022-10-18T19:09:37;11.5;;;5.5;;
50651;SDS011;61429;52.086;5.240;2022-10-18T19:11:14;8.9;;;5.7;;
50651;SDS011;61429;52.086;5.240;2022-10-18T19:14:28;11.6;;;7.1;;
50651;SDS011;61429;52.086;5.240;2022-10-18T19:16:36;13.4;;;8.31;;
50651;SDS011;61429;52.086;5.240;2022-10-18T19:18:13;14.0;;;8.0;;
50651;SDS011;61429;52.086;5.240;2022-10-18T19:19:50;15.6;;;9.1;;
50651;SDS011;61429;52.086;5.240;2022-10-18T19:21:28;13.8;;;7.5;;
50651;SDS011;61429;52.086;5.240;2022-10-18T19:24:43;10.9;;;6.3;;
50651;SDS011;61429;52.086;5.240;2022-10-18T19:26:23;13.5;;;7.0;;
50651;SDS011;61429;52.086;5.240;2022-10-18T19:28:04;13.8;;;7.1;;
50651;SDS011;61429;52.086;5.240;2022-10-18T19:31:16;12.4;;;7.5;;
50651;SDS011;61429;52.086;5.240;2022-10-18T19:32:57;14.6;;;7.0;;
50651;SDS011;61429;52.086;5.240;2022-10-18T19:34:33;15.3;;;7.7;;
50651;SDS011;61429;52.086;5.240;2022-10-18T19:36:10;11.7;;;7.1;;
50651;SDS011;61429;52.086;5.240;2022-10-18T19:39:23;14.0;;;7.5;;
50651;SDS011;61429;52.086;5.240;2022-10-18T19:41:00;13.9;;;7.6;;
50651;SDS011;61429;52.086;5.240;2022-10-18T19:42:36;11.6;;;7.2;;
50651;SDS011;61429;52.086;5.240;2022-10-18T19:45:49;13.5;;;6.7;;
50651;SDS011;61429;52.086;5.240;2022-10-18T19:47:27;12.1;;;6.6;;
50651;SDS011;61429;52.086;5.240;2022-10-18T19:49:03;10.9;;;5.8;;
50651;SDS011;61429;52.086;5.240;2022-10-18T19:50:39;11.9;;;6.1;;
50651;SDS011;61429;52.086;5.240;2022-10-18T19:53:52;13.3;;;6.7;;
50651;SDS011;61429;52.086;5.240;2022-10-18T19:55:29;13.4;;;6.7;;
50651;SDS011;61429;52.086;5.240;2022-10-18T19:57:05;10.8;;;6.2;;
50651;SDS011;61429;52.086;5.240;2022-10-18T20:00:18;12.0;;;6.8;;
50651;SDS011;61429;52.086;5.240;2022-10-18T20:01:54;10.7;;;6.0;;
50651;SDS011;61429;52.086;5.240;2022-10-18T20:03:30;10.4;;;6.3;;
50651;SDS011;61429;52.086;5.240;2022-10-18T20:06:44;13.7;;;6.1;;
50651;SDS011;61429;52.086;5.240;2022-10-18T20:09:57;12.3;;;6.1;;
50651;SDS011;61429;52.086;5.240;2022-10-18T20:11:33;13.3;;;7.0;;
50651;SDS011;61429;52.086;5.240;2022-10-18T20:14:46;17.3;;;8.31;;
50651;SDS011;61429;52.086;5.240;2022-10-18T20:16:24;10.7;;;7.6;;
50651;SDS011;61429;52.086;5.240;2022-10-18T20:18:02;11.5;;;6.7;;
50651;SDS011;61429;52.086;5.240;2022-10-18T20:21:15;12.4;;;7.6;;
50651;SDS011;61429;52.086;5.240;2022-10-18T20:22:52;16.9;;;9.81;;
50651;SDS011;61429;52.086;5.240;2022-10-18T20:24:28;13.8;;;9.4;;
50651;SDS011;61429;52.086;5.240;2022-10-18T20:27:44;18.7;;;9.71;;
50651;SDS011;61429;52.086;5.240;2022-10-18T20:29:20;12.1;;;8.5;;
50651;SDS011;61429;52.086;5.240;2022-10-18T20:30:58;14.7;;;8.9;;
50651;SDS011;61429;52.086;5.240;2022-10-18T20:32:35;13.0;;;8.31;;
50651;SDS011;61429;52.086;5.240;2022-10-18T20:35:47;14.6;;;8.5;;
50651;SDS011;61429;52.086;5.240;2022-10-18T20:37:23;13.7;;;8.9;;
50651;SDS011;61429;52.086;5.240;2022-10-18T20:39:00;13.2;;;8.5;;
50651;SDS011;61429;52.086;5.240;2022-10-18T20:42:13;10.9;;;7.7;;
50651;SDS011;61429;52.086;5.240;2022-10-18T20:43:49;15.1;;;9.81;;
50651;SDS011;61429;52.086;5.240;2022-10-18T20:45:27;14.3;;;9.81;;
50651;SDS011;61429;52.086;5.240;2022-10-18T20:48:39;16.0;;;10.6;;
50651;SDS011;61429;52.086;5.240;2022-10-18T20:50:16;11.8;;;7.9;;
50651;SDS011;61429;52.086;5.240;2022-10-18T20:51:52;11.4;;;7.7;;
50651;SDS011;61429;52.086;5.240;2022-10-18T20:53:28;14.4;;;9.4;;
50651;SDS011;61429;52.086;5.240;2022-10-18T20:56:40;13.6;;;9.4;;
50651;SDS011;61429;52.086;5.240;2022-10-18T20:58:16;13.0;;;8.9;;
50651;SDS011;61429;52.086;5.240;2022-10-18T20:59:52;16.5;;;9.0;;
50651;SDS011;61429;52.086;5.240;2022-10-18T21:03:08;12.2;;;8.1;;
50651;SDS011;61429;52.086;5.240;2022-10-18T21:04:44;13.6;;;7.6;;
50651;SDS011;61429;52.086;5.240;2022-10-18T21:06:21;12.3;;;7.7;;
50651;SDS011;61429;52.086;5.240;2022-10-18T21:09:35;14.1;;;7.9;;
50651;SDS011;61429;52.086;5.240;2022-10-18T21:11:12;12.3;;;8.2;;
50651;SDS011;61429;52.086;5.240;2022-10-18T21:12:49;11.6;;;7.2;;
50651;SDS011;61429;52.086;5.240;2022-10-18T21:14:26;11.5;;;7.0;;
50651;SDS011;61429;52.086;5.240;2022-10-18T21:17:40;11.2;;;6.7;;
50651;SDS011;61429;52.086;5.240;2022-10-18T21:19:17;10.9;;;6.2;;
50651;SDS011;61429;52.086;5.240;2022-10-18T21:21:05;11.3;;;6.1;;
50651;SDS011;61429;52.086;5.240;2022-10-18T21:22:42;13.3;;;6.1;;
50651;SDS011;61429;52.086;5.240;2022-10-18T21:25:57;10.7;;;5.7;;
50651;SDS011;61429;52.086;5.240;2022-10-18T21:27:34;12.3;;;5.9;;
50651;SDS011;61429;52.086;5.240;2022-10-18T21:29:10;9.4;;;5.5;;
50651;SDS011;61429;52.086;5.240;2022-10-18T21:32:23;12.5;;;5.7;;
50651;SDS011;61429;52.086;5.240;2022-10-18T21:34:01;10.7;;;5.7;;
50651;SDS011;61429;52.086;5.240;2022-10-18T21:35:40;11.9;;;6.0;;
50651;SDS011;61429;52.086;5.240;2022-10-18T21:38:53;10.8;;;5.9;;
50651;SDS011;61429;52.086;5.240;2022-10-18T21:40:29;11.8;;;5.9;;
50651;SDS011;61429;52.086;5.240;2022-10-18T21:42:07;11.0;;;6.1;;
50651;SDS011;61429;52.086;5.240;2022-10-18T21:43:44;11.5;;;5.9;;
50651;SDS011;61429;52.086;5.240;2022-10-18T21:46:58;14.9;;;6.3;;
50651;SDS011;61429;52.086;5.240;2022-10-18T21:48:35;12.1;;;6.0;;
50651;SDS011;61429;52.086;5.240;2022-10-18T21:50:12;12.3;;;6.7;;
50651;SDS011;61429;52.086;5.240;2022-10-18T21:53:24;14.2;;;7.1;;
50651;SDS011;61429;52.086;5.240;2022-10-18T21:55:00;10.21;;;6.1;;
50651;SDS011;61429;52.086;5.240;2022-10-18T21:56:36;11.3;;;6.3;;
50651;SDS011;61429;52.086;5.240;2022-10-18T21:59:49;12.1;;;6.1;;
50651;SDS011;61429;52.086;5.240;2022-10-18T22:01:27;12.4;;;5.9;;
